KMKE

Milwaukee

Airport
ICAO code
KMKE
Summary
ICAO Region
NAM
ICAO Territory
Location

Milwaukee, Wisconsin,

Coordinates
42° 56' 52" N , 87° 54' 11" W
KCC
Dfa
Airport WX
Lake Effect Snow
Metar
Observation
KMKE 170352Z 01007KT 10SM CLR 20/15 A3013 RMK AO2 SLP199 T02000150
Station
Milwaukee, General Mitchell International Airport
Date/Time
2022-08-17 03:52:00
Wind direction
10°
Wind speed
07 kts
Lowest cloud amount
n/a
Temperature
20°C
Dew point
15°C
Humidity
72%
Weather condition
n/a

Description

General Mitchell International Airport is a county-owned public airport located five miles (8 km) south of the central business district of Milwaukee, a city in Milwaukee County, Wisconsin, United States.

Climatology

Humid continental climate (Köppen climate classification Dfa) - characterized by four seasons: cold, windy, snowy winters, mild springs, hot, humid summers, and crisp and relatively short autumns. Precipitation reaches its lowest in January and February and peaks in summer and latter half of spring.

Runways

Designator Length Width Surface Rops
01R/19L 1275 46 ASP Yes/Yes
07L/25R 1463 30 ASP Yes/Yes
13/31 1789 46 ASP Yes/Yes
07R/25L 2442 46 PEM Yes/Yes
01L/19R 2954 61 PEM Yes/Yes

Airport map

Aerial View

SKYbrary Partners:

Safety knowledge contributed by: